Time;durP1;ratioP1;P1;durP2;ratioP2;P2;SDS_P1;SDS_P2;PMS_P1;PMS_P2;Temp;Humidity;BMP_temperature;BMP_pressure;BME280_temperature;BME280_humidity;BME280_pressure;Samples;Min_cycle;Max_cycle;Signal;HPM_P1;HPM_P2
2022/10/26 00:02:15;;;;;;;;;;;;;;;-148.88;100.00;76175.38;5075813;28;19920;-75
2022/10/26 00:04:40;;;;;;;;;;;;;;;-148.88;100.00;76177.41;5075982;28;19909;-75
2022/10/26 00:07:05;;;;;;;;;;;;;;;-148.88;100.00;76175.38;5075955;28;19955;-75
2022/10/26 00:09:30;;;;;;;;;;;;;;;-148.88;100.00;76185.53;5075736;28;19949;-75
2022/10/26 00:11:56;;;;;;;;;;;;;;;-148.88;100.00;76187.56;5075738;28;19908;-75
2022/10/26 00:14:21;;;;;;;;;;;;;;;-148.88;100.00;76191.63;5075669;28;20298;-76
2022/10/26 00:16:46;;;;;;;;;;;;;;;-148.88;100.00;76185.53;5075821;28;19930;-75
2022/10/26 00:19:11;;;;;;;;;;;;;;;-148.88;100.00;76189.59;5075648;28;20282;-75
2022/10/26 00:21:36;;;;;;;;;;;;;;;-148.88;100.00;76189.59;5075410;28;19916;-75
2022/10/26 00:24:02;;;;;;;;;;;;;;;-148.88;100.00;76191.63;5075408;28;19916;-75
2022/10/26 00:26:27;;;;;;;;;;;;;;;-148.88;100.00;76195.69;5057662;28;19908;-75
2022/10/26 00:28:53;;;;;;;;;;;;;;;-148.88;100.00;76181.47;5075322;28;19908;-75
2022/10/26 00:31:19;;;;;;;;;;;;;;;-148.88;100.00;76187.56;5075286;28;19909;-75
2022/10/26 00:33:44;;;;;;;;;;;;;;;-148.88;100.00;76195.69;5075323;28;20359;-75
2022/10/26 00:36:09;;;;;;;;;;;;;;;-148.88;100.00;76205.84;5074997;28;19956;-75
2022/10/26 00:38:35;;;;;;;;;;;;;;;-148.88;100.00;76203.81;5075248;28;19908;-75
2022/10/26 00:41:00;;;;;;;;;;;;;;;-148.88;100.00;76203.81;5075073;28;19908;-75
2022/10/26 00:43:28;;;;;;;;;;;;;;;-148.88;100.00;76207.88;5075085;28;19913;-75
2022/10/26 00:45:54;;;;;;;;;;;;;;;-148.88;100.00;76216.00;5075506;28;19909;-75
2022/10/26 00:48:28;;;;;;;;;;;;;;;-148.88;100.00;76211.94;5074106;28;19913;-75
2022/10/26 00:50:55;;;;;;;;;;;;;;;-148.88;100.00;76220.06;5075119;28;20386;-75
2022/10/26 00:53:20;;;;;;;;;;;;;;;-148.88;100.00;76232.25;5074798;28;19915;-75
2022/10/26 00:55:47;;;;;;;;;;;;;;;-148.88;100.00;76240.38;5073306;28;20019;-75
2022/10/26 00:58:13;;;;;;;;;;;;;;;-148.88;100.00;76248.50;5074694;28;19919;-75
2022/10/26 01:00:39;;;;;;;;;;;;;;;-148.88;100.00;76242.41;5074828;28;19998;-75
2022/10/26 01:03:05;;;;;;;;;;;;;;;-148.88;100.00;76240.38;5074696;28;19992;-75
2022/10/26 01:05:31;;;;;;;;;;;;;;;-148.88;100.00;76234.28;5074829;28;20397;-75
2022/10/26 01:07:57;;;;;;;;;;;;;;;-148.88;100.00;76234.28;5074503;28;20397;-75
2022/10/26 01:10:23;;;;;;;;;;;;;;;-148.88;100.00;76240.38;5074299;28;19908;-75
2022/10/26 01:12:50;;;;;;;;;;;;;;;-148.88;100.00;76240.38;5074369;28;19909;-75
2022/10/26 01:15:15;;;;;;;;;;;;;;;-148.88;100.00;76242.41;5074480;28;19912;-75
2022/10/26 01:17:43;;;;;;;;;;;;;;;-148.88;100.00;76242.41;5074617;28;19908;-75
2022/10/26 01:20:08;;;;;;;;;;;;;;;-148.88;100.00;76232.25;5074365;28;19908;-75
2022/10/26 01:22:43;;;;;;;;;;;;;;;-148.88;100.00;76240.38;5074410;28;20389;-76
2022/10/26 01:25:26;;;;;;;;;;;;;;;-148.88;100.00;76236.31;5074283;28;20260;-75
2022/10/26 01:27:52;;;;;;;;;;;;;;;-148.88;100.00;76242.41;5056223;28;19958;-76
2022/10/26 01:30:25;;;;;;;;;;;;;;;-148.88;100.00;76242.41;5074312;28;19915;-75
2022/10/26 01:32:56;;;;;;;;;;;;;;;-148.88;100.00;76250.53;5074019;28;19983;-76
2022/10/26 01:35:29;;;;;;;;;;;;;;;-148.88;100.00;76250.53;5073854;28;19923;-76
2022/10/26 01:38:07;;;;;;;;;;;;;;;-148.88;100.00;76248.50;5074292;28;19969;-75
2022/10/26 01:40:32;;;;;;;;;;;;;;;-148.88;100.00;76248.50;5074026;28;20286;-75
2022/10/26 01:43:01;;;;;;;;;;;;;;;-148.88;100.00;76240.38;5074044;28;19908;-76
2022/10/26 01:45:28;;;;;;;;;;;;;;;-148.88;100.00;76244.44;5072497;28;19915;-75
2022/10/26 01:47:54;;;;;;;;;;;;;;;-148.88;100.00;76244.44;5073870;28;19915;-75
2022/10/26 01:50:21;;;;;;;;;;;;;;;-148.88;100.00;76244.44;5073542;28;19908;-75
2022/10/26 01:52:49;;;;;;;;;;;;;;;-148.88;100.00;76244.44;5073543;28;19909;-75
2022/10/26 01:55:33;;;;;;;;;;;;;;;-148.88;100.00;76244.44;5079904;22;20401;-85
2022/10/26 01:58:04;;;;;;;;;;;;;;;-148.88;100.00;76244.44;5074043;28;19924;-85
2022/10/26 02:00:33;;;;;;;;;;;;;;;-148.88;100.00;76248.50;5074225;28;19912;-85
2022/10/26 02:03:17;;;;;;;;;;;;;;;-148.88;100.00;76244.44;5074709;28;19963;-85
2022/10/26 02:05:42;;;;;;;;;;;;;;;-148.88;100.00;76248.50;5069012;28;19909;-85
2022/10/26 02:08:07;;;;;;;;;;;;;;;-148.88;100.00;76246.47;5074690;22;19924;-83
2022/10/26 02:10:51;;;;;;;;;;;;;;;-148.88;100.00;76248.50;5054330;28;19916;-84
2022/10/26 02:13:24;;;;;;;;;;;;;;;-148.88;100.00;76246.47;5053736;28;20015;-85
2022/10/26 02:16:02;;;;;;;;;;;;;;;-148.88;100.00;76236.31;5055500;28;20279;-85
2022/10/26 02:18:34;;;;;;;;;;;;;;;-148.88;100.00;76236.31;5051603;28;19948;-84
2022/10/26 02:21:09;;;;;;;;;;;;;;;-148.88;100.00;76236.31;5050355;28;19909;-84
2022/10/26 02:23:40;;;;;;;;;;;;;;;-148.88;100.00;76246.47;5034591;28;19915;-85
2022/10/26 02:26:25;;;;;;;;;;;;;;;-148.88;100.00;76248.50;5051187;28;20003;-85
2022/10/26 02:29:00;;;;;;;;;;;;;;;-148.88;100.00;76236.31;5048765;28;20008;-85
2022/10/26 02:31:34;;;;;;;;;;;;;;;-148.88;100.00;76236.31;5050287;28;19912;-82
2022/10/26 02:34:10;;;;;;;;;;;;;;;-148.88;100.00;76242.41;5049443;28;19937;-84
2022/10/26 02:36:38;;;;;;;;;;;;;;;-148.88;100.00;76244.44;5034792;28;19971;-83
2022/10/26 02:39:05;;;;;;;;;;;;;;;-148.88;100.00;76244.44;5049466;28;19924;-84
2022/10/26 02:41:32;;;;;;;;;;;;;;;-148.88;100.00;76248.50;5034129;28;19909;-84
2022/10/26 02:44:20;;;;;;;;;;;;;;;-148.88;100.00;76252.56;5050215;28;19917;-82
2022/10/26 02:46:46;;;;;;;;;;;;;;;-148.88;100.00;76254.59;5034912;28;20054;-84
2022/10/26 02:49:11;;;;;;;;;;;;;;;-148.88;100.00;76256.63;5050509;28;19960;-84
2022/10/26 02:51:44;;;;;;;;;;;;;;;-148.88;100.00;76256.63;5050231;28;19909;-84
2022/10/26 02:54:16;;;;;;;;;;;;;;;-148.88;100.00;76260.69;5051014;28;19909;-86
2022/10/26 02:56:47;;;;;;;;;;;;;;;-148.88;100.00;76258.66;5051436;28;19967;-85
2022/10/26 02:59:14;;;;;;;;;;;;;;;-148.88;100.00;76260.69;5035451;28;20004;-84
2022/10/26 03:01:48;;;;;;;;;;;;;;;-148.88;100.00;76256.63;5051420;28;19992;-85
2022/10/26 03:04:13;;;;;;;;;;;;;;;-148.88;100.00;76252.56;5051147;28;19913;-83
2022/10/26 03:06:50;;;;;;;;;;;;;;;-148.88;100.00;76252.56;5049924;28;20264;-83
2022/10/26 03:09:23;;;;;;;;;;;;;;;-148.88;100.00;76248.50;5034056;28;19913;-83
2022/10/26 03:11:48;;;;;;;;;;;;;;;-148.88;100.00;76248.50;5036433;28;19940;-83
2022/10/26 03:14:14;;;;;;;;;;;;;;;-148.88;100.00;76244.44;5054707;28;19909;-83
2022/10/26 03:16:41;;;;;;;;;;;;;;;-148.88;100.00;76248.50;5054512;28;19941;-83
2022/10/26 03:19:07;;;;;;;;;;;;;;;-148.88;100.00;76244.44;5054424;28;19909;-83
2022/10/26 03:21:38;;;;;;;;;;;;;;;-148.88;100.00;76238.34;5053755;28;19909;-85
2022/10/26 03:24:04;;;;;;;;;;;;;;;-148.88;100.00;76232.25;5038081;28;19955;-84
2022/10/26 03:26:34;;;;;;;;;;;;;;;-148.88;100.00;76234.28;5054113;28;19917;-84
2022/10/26 03:29:00;;;;;;;;;;;;;;;-148.88;100.00;76230.22;5055413;28;19909;-86
2022/10/26 03:31:28;;;;;;;;;;;;;;;-148.88;100.00;76230.22;5054248;28;19908;-84
2022/10/26 03:34:19;;;;;;;;;;;;;;;-148.88;100.00;76228.19;5054937;28;19909;-85
2022/10/26 03:36:45;;;;;;;;;;;;;;;-148.88;100.00;76226.16;5050355;28;20295;-83
2022/10/26 03:39:10;;;;;;;;;;;;;;;-148.88;100.00;76236.31;5038922;28;19916;-83
2022/10/26 03:41:36;;;;;;;;;;;;;;;-148.88;100.00;76232.25;5053517;28;19940;-85
2022/10/26 03:44:01;;;;;;;;;;;;;;;-148.88;100.00;76224.13;5053076;28;20282;-84
2022/10/26 03:46:26;;;;;;;;;;;;;;;-148.88;100.00;76224.13;5052850;28;19935;-85
2022/10/26 03:48:52;;;;;;;;;;;;;;;-148.88;100.00;76224.13;5052848;28;19909;-83
2022/10/26 03:51:17;;;;;;;;;;;;;;;-148.88;100.00;76224.13;5053526;28;19909;-84
2022/10/26 03:53:42;;;;;;;;;;;;;;;-148.88;100.00;76230.22;5053620;28;19908;-85
2022/10/26 03:56:07;;;;;;;;;;;;;;;-148.88;100.00;76236.31;5053291;28;19995;-84
2022/10/26 03:58:33;;;;;;;;;;;;;;;-148.88;100.00;76242.41;5053350;28;19916;-84
2022/10/26 04:00:58;;;;;;;;;;;;;;;-148.88;100.00;76242.41;5054812;28;19913;-85
2022/10/26 04:03:23;;;;;;;;;;;;;;;-148.88;100.00;76248.50;5041342;28;19908;-85
2022/10/26 04:05:49;;;;;;;;;;;;;;;-148.88;100.00;76256.63;5056505;28;19909;-85
2022/10/26 04:08:14;;;;;;;;;;;;;;;-148.88;100.00;76254.59;5057641;28;19920;-85
2022/10/26 04:10:39;;;;;;;;;;;;;;;-148.88;100.00;76264.75;5057310;28;19909;-86
2022/10/26 04:13:04;;;;;;;;;;;;;;;-148.88;100.00;76262.72;5057680;28;19940;-86
2022/10/26 04:15:30;;;;;;;;;;;;;;;-148.88;100.00;76264.75;5056503;28;19931;-85
2022/10/26 04:18:00;;;;;;;;;;;;;;;-148.88;100.00;76264.75;5038777;28;19936;-85
2022/10/26 04:20:26;;;;;;;;;;;;;;;-148.88;100.00;76264.75;5052250;28;19909;-83
2022/10/26 04:23:05;;;;;;;;;;;;;;;-148.88;100.00;76264.75;5052573;28;19909;-85
2022/10/26 04:25:31;;;;;;;;;;;;;;;-148.88;100.00;76272.88;5053189;28;19909;-85
2022/10/26 04:27:56;;;;;;;;;;;;;;;-148.88;100.00;76272.88;5053099;28;20047;-85
2022/10/26 04:30:28;;;;;;;;;;;;;;;-148.88;100.00;76278.97;5053412;28;19909;-86
2022/10/26 04:32:53;;;;;;;;;;;;;;;-148.88;100.00;76285.06;5054038;28;19916;-87
2022/10/26 04:35:21;;;;;;;;;;;;;;;-148.88;100.00;76281.00;5038748;28;19917;-87
2022/10/26 04:37:46;;;;;;;;;;;;;;;-148.88;100.00;76274.91;5056238;28;19909;-85
2022/10/26 04:40:14;;;;;;;;;;;;;;;-148.88;100.00;76276.94;5056874;28;19959;-85
2022/10/26 04:42:48;;;;;;;;;;;;;;;-148.88;100.00;76274.91;5056916;28;19944;-84
2022/10/26 04:45:17;;;;;;;;;;;;;;;-148.88;100.00;76272.88;5043136;28;19913;-82
2022/10/26 04:47:45;;;;;;;;;;;;;;;-148.88;100.00;76272.88;5055088;28;20276;-84
2022/10/26 04:50:11;;;;;;;;;;;;;;;-148.88;100.00;76272.88;5054296;28;19908;-84
2022/10/26 04:52:37;;;;;;;;;;;;;;;-148.88;100.00;76278.97;5054246;28;19909;-85
2022/10/26 04:55:06;;;;;;;;;;;;;;;-148.88;100.00;76270.84;5052467;28;19920;-84
2022/10/26 04:57:34;;;;;;;;;;;;;;;-148.88;100.00;76268.81;5052166;28;20287;-84
2022/10/26 05:00:20;;;;;;;;;;;;;;;-148.88;100.00;76270.84;5052035;28;19999;-84
2022/10/26 05:02:48;;;;;;;;;;;;;;;-148.88;100.00;76281.00;5052017;28;20364;-82
2022/10/26 05:05:13;;;;;;;;;;;;;;;-148.88;100.00;76278.97;5052076;28;19916;-84
2022/10/26 05:07:39;;;;;;;;;;;;;;;-148.88;100.00;76287.09;5051588;28;19909;-82
2022/10/26 05:10:04;;;;;;;;;;;;;;;-148.88;100.00;76285.06;5052605;28;19913;-84
2022/10/26 05:12:30;;;;;;;;;;;;;;;-148.88;100.00;76281.00;5051948;28;19909;-83
2022/10/26 05:14:57;;;;;;;;;;;;;;;-148.88;100.00;76278.97;5036710;28;20338;-85
2022/10/26 05:17:23;;;;;;;;;;;;;;;-148.88;100.00;76272.88;5051784;28;20347;-86
2022/10/26 05:19:54;;;;;;;;;;;;;;;-148.88;100.00;76268.81;5051544;28;19913;-84
2022/10/26 05:22:19;;;;;;;;;;;;;;;-148.88;100.00;76268.81;5051870;28;19921;-82
2022/10/26 05:24:44;;;;;;;;;;;;;;;-148.88;100.00;76272.88;5035409;28;19920;-83
2022/10/26 05:27:09;;;;;;;;;;;;;;;-148.88;100.00;76276.94;5036148;28;19978;-84
2022/10/26 05:29:35;;;;;;;;;;;;;;;-148.88;100.00;76272.88;5050729;28;19909;-85
2022/10/26 05:32:00;;;;;;;;;;;;;;;-148.88;100.00;76260.69;5051420;28;19909;-85
2022/10/26 05:34:25;;;;;;;;;;;;;;;-148.88;100.00;76258.66;5049652;28;19909;-85
2022/10/26 05:36:54;;;;;;;;;;;;;;;-148.88;100.00;76260.69;5050720;28;20019;-84
2022/10/26 05:39:20;;;;;;;;;;;;;;;-148.88;100.00;76258.66;5050614;28;19975;-85
2022/10/26 05:41:51;;;;;;;;;;;;;;;-148.88;100.00;76260.69;5051166;28;20364;-86
2022/10/26 05:44:19;;;;;;;;;;;;;;;-148.88;100.00;76260.69;5050938;28;19909;-84
2022/10/26 05:46:45;;;;;;;;;;;;;;;-148.88;100.00;76260.69;5051697;28;20031;-84
2022/10/26 05:49:11;;;;;;;;;;;;;;;-148.88;100.00;76248.50;5034747;28;20325;-84
2022/10/26 05:51:38;;;;;;;;;;;;;;;-148.88;100.00;76248.50;5050279;28;19913;-85
2022/10/26 05:54:04;;;;;;;;;;;;;;;-148.88;100.00;76240.38;5035034;28;20279;-84
2022/10/26 05:56:33;;;;;;;;;;;;;;;-148.88;100.00;76242.41;5051447;28;19917;-85
2022/10/26 05:58:59;;;;;;;;;;;;;;;-148.88;100.00;76232.25;5035226;28;20066;-84
2022/10/26 06:01:32;;;;;;;;;;;;;;;-148.88;100.00;76240.38;5035988;28;20402;-85
2022/10/26 06:04:01;;;;;;;;;;;;;;;-148.88;100.00;76236.31;5050864;28;19944;-86
2022/10/26 06:06:28;;;;;;;;;;;;;;;-148.88;100.00;76236.31;5034252;28;19909;-84
2022/10/26 06:08:54;;;;;;;;;;;;;;;-148.88;100.00;76224.13;5034208;28;20007;-83
2022/10/26 06:11:19;;;;;;;;;;;;;;;-148.88;100.00;76213.97;5050496;28;19958;-84
2022/10/26 06:13:44;;;;;;;;;;;;;;;-148.88;100.00;76205.84;5049830;28;19909;-84
2022/10/26 06:16:12;;;;;;;;;;;;;;;-148.88;100.00;76199.75;5034526;28;19913;-84
2022/10/26 06:18:53;;;;;;;;;;;;;;;-148.88;100.00;76195.69;5034353;28;19916;-83
2022/10/26 06:21:28;;;;;;;;;;;;;;;-148.88;100.00;76193.66;5034491;28;20429;-84
2022/10/26 06:24:12;;;;;;;;;;;;;;;-148.88;100.00;76189.59;5050154;28;19915;-84
2022/10/26 06:26:56;;;;;;;;;;;;;;;-148.88;100.00;76183.50;5034197;28;20330;-85
2022/10/26 06:29:29;;;;;;;;;;;;;;;-148.88;100.00;76179.44;5033045;28;19909;-83
2022/10/26 06:31:55;;;;;;;;;;;;;;;-148.88;100.00;76179.44;5049623;28;19909;-85
2022/10/26 06:34:24;;;;;;;;;;;;;;;-148.88;100.00;76183.50;5049541;28;19959;-85
2022/10/26 06:36:50;;;;;;;;;;;;;;;-148.88;100.00;76177.41;5033860;28;19917;-84
2022/10/26 06:39:15;;;;;;;;;;;;;;;-148.88;100.00;76179.44;5049490;28;19908;-85
2022/10/26 06:41:41;;;;;;;;;;;;;;;-148.88;100.00;76177.41;5049392;28;20026;-85
2022/10/26 06:44:08;;;;;;;;;;;;;;;-148.88;100.00;76173.34;5034361;28;19909;-85
2022/10/26 06:46:52;;;;;;;;;;;;;;;-148.88;100.00;76171.31;5048361;28;20425;-84
2022/10/26 06:49:42;;;;;;;;;;;;;;;-148.88;100.00;76177.41;5034366;28;19912;-83
2022/10/26 06:52:07;;;;;;;;;;;;;;;-148.88;100.00;76179.44;5034284;28;19909;-83
2022/10/26 06:54:38;;;;;;;;;;;;;;;-148.88;100.00;76175.38;5033539;28;20016;-85
2022/10/26 06:57:07;;;;;;;;;;;;;;;-148.88;100.00;76183.50;5032855;28;19913;-84
2022/10/26 06:59:48;;;;;;;;;;;;;;;-148.88;100.00;76181.47;5050365;28;19909;-85
2022/10/26 07:02:13;;;;;;;;;;;;;;;-148.88;100.00;76185.53;5049613;28;19909;-84
2022/10/26 07:04:39;;;;;;;;;;;;;;;-148.88;100.00;76183.50;5049420;28;19943;-84
2022/10/26 07:07:10;;;;;;;;;;;;;;;-148.88;100.00;76183.50;5049562;28;20314;-83
2022/10/26 07:09:35;;;;;;;;;;;;;;;-148.88;100.00;76183.50;5049081;28;19913;-85
2022/10/26 07:12:00;;;;;;;;;;;;;;;-148.88;100.00;76185.53;5050297;28;19909;-85
2022/10/26 07:14:26;;;;;;;;;;;;;;;-148.88;100.00;76171.31;5033699;28;19909;-84
2022/10/26 07:16:52;;;;;;;;;;;;;;;-148.88;100.00;76171.31;5048993;28;19920;-83
2022/10/26 07:19:17;;;;;;;;;;;;;;;-148.88;100.00;76163.19;5049223;28;19909;-85
2022/10/26 07:21:42;;;;;;;;;;;;;;;-148.88;100.00;76163.19;5049152;28;20314;-84
2022/10/26 07:24:07;;;;;;;;;;;;;;;-148.88;100.00;76155.06;5049659;28;20286;-84
2022/10/26 07:26:33;;;;;;;;;;;;;;;-148.88;100.00;76146.94;5033728;28;19915;-84
2022/10/26 07:28:58;;;;;;;;;;;;;;;-148.88;100.00;76146.94;5049599;28;19909;-84
2022/10/26 07:31:24;;;;;;;;;;;;;;;-148.88;100.00;76140.84;5049051;28;20004;-84
2022/10/26 07:33:51;;;;;;;;;;;;;;;-148.88;100.00;76132.72;5034009;28;20003;-84
2022/10/26 07:36:17;;;;;;;;;;;;;;;-148.88;100.00;76134.72;5033863;28;19913;-85
2022/10/26 07:38:42;;;;;;;;;;;;;;;-148.88;100.00;76126.59;5050162;28;19918;-86
2022/10/26 07:41:07;;;;;;;;;;;;;;;-148.88;100.00;76118.47;5051355;28;20371;-83
2022/10/26 07:43:32;;;;;;;;;;;;;;;-148.88;100.00;76110.34;5034657;28;20015;-84
2022/10/26 07:46:07;;;;;;;;;;;;;;;-148.88;100.00;76104.25;5034217;28;19909;-84
2022/10/26 07:48:32;;;;;;;;;;;;;;;-148.88;100.00;76096.13;5049723;28;19909;-84
2022/10/26 07:50:59;;;;;;;;;;;;;;;-148.88;100.00;76085.97;5050257;28;20000;-84
2022/10/26 07:53:24;;;;;;;;;;;;;;;-148.88;100.00;76077.84;5033946;28;19909;-85
2022/10/26 07:55:56;;;;;;;;;;;;;;;-148.88;100.00;76071.75;5049557;28;19959;-84
2022/10/26 07:58:26;;;;;;;;;;;;;;;-148.88;100.00;76071.75;5036603;28;19909;-84
2022/10/26 08:00:52;;;;;;;;;;;;;;;-148.88;100.00;76061.59;5053138;28;20394;-83
2022/10/26 08:03:17;;;;;;;;;;;;;;;-148.88;100.00;76059.56;5052973;28;19913;-84
2022/10/26 08:05:44;;;;;;;;;;;;;;;-148.88;100.00;76033.16;5052481;28;20293;-84
2022/10/26 08:08:10;;;;;;;;;;;;;;;-148.88;100.00;76008.78;5052320;28;20308;-84
2022/10/26 08:10:35;;;;;;;;;;;;;;;-148.88;100.00;75992.53;5052667;28;19909;-83
2022/10/26 08:13:03;;;;;;;;;;;;;;;-148.88;100.00;75960.03;5038505;28;19909;-84
2022/10/26 08:15:28;;;;;;;;;;;;;;;-148.88;100.00;75949.88;5037222;28;19912;-83
2022/10/26 08:17:53;;;;;;;;;;;;;;;-148.88;100.00;75935.66;5052820;28;20261;-85
2022/10/26 08:20:20;;;;;;;;;;;;;;;-148.88;100.00;75927.53;5038941;28;19928;-84
2022/10/26 08:22:46;;;;;;;;;;;;;;;-148.88;100.00;75907.22;5053488;28;19912;-83
2022/10/26 08:25:11;;;;;;;;;;;;;;;-148.88;100.00;75890.97;5037790;28;19909;-84
2022/10/26 08:27:36;;;;;;;;;;;;;;;-148.88;100.00;75866.59;5052221;28;19913;-85
2022/10/26 08:30:02;;;;;;;;;;;;;;;-148.88;100.00;75846.28;5053082;28;19915;-83
2022/10/26 08:32:27;;;;;;;;;;;;;;;-148.88;100.00;75830.03;5052506;28;19916;-84
2022/10/26 08:34:52;;;;;;;;;;;;;;;-148.88;100.00;75823.94;5038999;28;19912;-83
2022/10/26 08:37:17;;;;;;;;;;;;;;;-148.88;100.00;75821.91;5052872;28;19909;-84
2022/10/26 08:39:43;;;;;;;;;;;;;;;-148.88;100.00;75813.78;5037013;28;19977;-84
2022/10/26 08:42:15;;;;;;;;;;;;;;;-148.88;100.00;75799.56;5053631;28;19909;-84
2022/10/26 08:44:43;;;;;;;;;;;;;;;-148.88;100.00;75797.53;5039791;28;19925;-84
2022/10/26 08:47:13;;;;;;;;;;;;;;;-148.88;100.00;75787.38;5041048;28;19970;-82
2022/10/26 08:49:43;;;;;;;;;;;;;;;-148.88;100.00;75769.09;5040896;28;19963;-85
2022/10/26 08:52:11;;;;;;;;;;;;;;;-148.88;100.00;75777.22;5056741;28;19909;-85
2022/10/26 08:54:43;;;;;;;;;;;;;;;-148.88;100.00;75775.19;5058452;28;19924;-84
2022/10/26 08:57:20;;;;;;;;;;;;;;;-148.88;100.00;75767.06;5054904;28;20463;-83
2022/10/26 08:59:55;;;;;;;;;;;;;;;-148.88;100.00;75752.84;5053382;28;19913;-84
2022/10/26 09:02:20;;;;;;;;;;;;;;;-148.88;100.00;75736.59;5036561;28;20411;-83
2022/10/26 09:04:48;;;;;;;;;;;;;;;-148.88;100.00;75722.38;5052668;28;19908;-84
2022/10/26 09:07:30;;;;;;;;;;;;;;;-148.88;100.00;75708.16;5047976;28;19909;-85
2022/10/26 09:09:58;;;;;;;;;;;;;;;-148.88;100.00;75691.91;5051257;28;19917;-83
2022/10/26 09:12:30;;;;;;;;;;;;;;;-148.88;100.00;75675.66;5037599;28;20363;-85
2022/10/26 09:14:59;;;;;;;;;;;;;;;-148.88;100.00;75667.53;5053371;28;19909;-84
2022/10/26 09:17:33;;;;;;;;;;;;;;;-148.88;100.00;75659.41;5036438;28;19971;-84
2022/10/26 09:20:04;;;;;;;;;;;;;;;-148.88;100.00;75655.34;5037601;28;19909;-84
2022/10/26 09:22:40;;;;;;;;;;;;;;;-148.88;100.00;75637.06;5052705;28;20429;-82
2022/10/26 09:25:18;;;;;;;;;;;;;;;-148.88;100.00;75626.91;5052348;28;20291;-84
2022/10/26 09:27:46;;;;;;;;;;;;;;;-148.88;100.00;75608.63;5051703;28;19947;-83
2022/10/26 09:30:19;;;;;;;;;;;;;;;-148.88;100.00;75610.66;5051010;28;19913;-83
2022/10/26 09:32:46;;;;;;;;;;;;;;;-148.88;100.00;75602.53;5036276;28;20287;-84
2022/10/26 09:35:14;;;;;;;;;;;;;;;-148.88;100.00;75592.38;5053309;28;19923;-83
2022/10/26 09:37:45;;;;;;;;;;;;;;;-148.88;100.00;75588.34;5052730;28;19913;-84
2022/10/26 09:40:14;;;;;;;;;;;;;;;-148.88;100.00;75574.13;5051641;28;19909;-84
2022/10/26 09:42:42;;;;;;;;;;;;;;;-148.88;100.00;75566.00;5037172;28;19909;-84
2022/10/26 09:45:15;;;;;;;;;;;;;;;-148.88;100.00;75557.88;5051955;28;19909;-84
2022/10/26 09:47:43;;;;;;;;;;;;;;;-148.88;100.00;75549.75;5051755;28;19913;-83
2022/10/26 09:50:35;;;;;;;;;;;;;;;-148.88;100.00;75549.75;5052162;28;20422;-81
2022/10/26 09:53:00;;;;;;;;;;;;;;;-148.88;100.00;75541.63;5047861;28;19913;-84
2022/10/26 09:55:26;;;;;;;;;;;;;;;-148.88;100.00;75527.41;5051435;28;20272;-84
2022/10/26 09:57:54;;;;;;;;;;;;;;;-148.88;100.00;75515.22;5051502;28;19916;-82
2022/10/26 10:00:21;;;;;;;;;;;;;;;-148.88;100.00;75509.13;5051694;28;20008;-83
2022/10/26 10:02:50;;;;;;;;;;;;;;;-148.88;100.00;75503.03;5051444;28;19909;-83
2022/10/26 10:05:29;;;;;;;;;;;;;;;-148.88;100.00;75488.81;5035795;28;19955;-82
2022/10/26 10:08:14;;;;;;;;;;;;;;;-148.88;99.63;75482.72;5050761;28;19956;-83
2022/10/26 10:10:52;;;;;;;;;;;;;;;-148.88;100.00;75444.13;5035742;28;19909;-83
2022/10/26 10:13:23;;;;;;;;;;;;;;;-148.88;97.00;75429.91;5036234;28;19917;-85
2022/10/26 10:15:53;;;;;;;;;;;;;;;-148.88;94.94;75415.69;5050797;28;19916;-83
2022/10/26 10:18:23;;;;;;;;;;;;;;;-148.88;96.02;75395.38;5051473;28;19949;-82
2022/10/26 10:20:53;;;;;;;;;;;;;;;-148.88;93.89;75379.13;5050438;28;19920;-83
2022/10/26 10:23:25;;;;;;;;;;;;;;;-148.88;93.82;75364.91;5051884;28;20340;-84
2022/10/26 10:26:11;;;;;;;;;;;;;;;-148.88;92.81;75360.84;5034736;28;19909;-83
2022/10/26 10:28:40;;;;;;;;;;;;;;;-148.88;94.55;75326.31;5050562;28;19976;-83
2022/10/26 10:31:25;;;;;;;;;;;;;;;-148.88;91.78;75310.06;5051215;28;19909;-83
2022/10/26 10:33:51;;;;;;;;;;;;;;;-148.88;90.19;75293.81;5034642;28;19912;-83
2022/10/26 10:36:18;;;;;;;;;;;;;;;-148.88;91.56;75273.53;5050947;28;19931;-84
2022/10/26 10:38:48;;;;;;;;;;;;;;;-148.88;89.68;75289.75;5035117;28;19916;-84
2022/10/26 10:41:22;;;;;;;;;;;;;;;-148.88;90.89;75285.69;5050382;28;19909;-83
2022/10/26 10:43:59;;;;;;;;;;;;;;;-148.88;90.64;75255.25;5035189;28;19916;-83
2022/10/26 10:46:30;;;;;;;;;;;;;;;-148.88;88.57;75261.34;5052087;28;19914;-84
2022/10/26 10:49:03;;;;;;;;;;;;;;;-148.88;88.73;75245.09;5035551;28;19913;-85
2022/10/26 10:51:30;;;;;;;;;;;;;;;-148.88;87.81;75228.84;5052874;28;20396;-82
2022/10/26 10:53:55;;;;;;;;;;;;;;;-148.88;87.35;75234.94;5051918;28;19909;-84
2022/10/26 10:56:33;;;;;;;;;;;;;;;-148.88;87.52;75241.03;5050115;28;19920;-84
2022/10/26 10:59:11;;;;;;;;;;;;;;;-148.88;88.21;75253.22;5050235;28;19989;-84
2022/10/26 11:01:46;;;;;;;;;;;;;;;-148.88;89.58;75253.22;5033881;28;19909;-84
2022/10/26 11:04:11;;;;;;;;;;;;;;;-148.88;89.28;75247.13;5051438;28;19955;-85
2022/10/26 11:06:40;;;;;;;;;;;;;;;-148.88;89.48;75228.84;5035109;28;19913;-83
2022/10/26 11:09:08;;;;;;;;;;;;;;;-148.88;88.74;75226.81;5054710;28;19921;-85
2022/10/26 11:11:36;;;;;;;;;;;;;;;-148.88;88.20;75224.78;5050932;28;20375;-84
2022/10/26 11:14:11;;;;;;;;;;;;;;;-148.88;89.11;75206.50;5050805;28;19909;-85
2022/10/26 11:16:42;;;;;;;;;;;;;;;-148.88;87.80;75169.94;5035252;28;19913;-85
2022/10/26 11:19:26;;;;;;;;;;;;;;;-148.88;87.29;75111.03;5050621;28;19909;-84
2022/10/26 11:22:03;;;;;;;;;;;;;;;-148.88;84.12;75064.34;5034980;28;19909;-83
2022/10/26 11:24:49;;;;;;;;;;;;;;;-148.88;83.66;75025.75;5050903;28;19909;-84
2022/10/26 11:27:33;;;;;;;;;;;;;;;-148.88;81.25;74989.19;5034546;28;19916;-84
2022/10/26 11:30:16;;;;;;;;;;;;;;;-148.88;81.42;74962.78;5050122;28;20279;-83
2022/10/26 11:32:41;;;;;;;;;;;;;;;-148.88;79.51;74954.66;5052965;28;20254;-84
2022/10/26 11:35:19;;;;;;;;;;;;;;;-148.88;76.87;74974.97;5037172;28;20430;-83
2022/10/26 11:37:55;;;;;;;;;;;;;;;-148.88;77.11;74997.31;5053813;28;19917;-84
2022/10/26 11:40:24;;;;;;;;;;;;;;;-148.88;79.05;75013.56;5054143;28;19919;-84
2022/10/26 11:43:00;;;;;;;;;;;;;;;-148.88;80.87;75037.94;5037714;28;19909;-83
2022/10/26 11:45:29;;;;;;;;;;;;;;;-148.88;81.29;75046.06;5054212;28;19909;-84
2022/10/26 11:47:54;;;;;;;;;;;;;;;-148.88;80.10;75074.50;5053720;28;19909;-82
2022/10/26 11:50:31;;;;;;;;;;;;;;;-148.88;81.89;75044.03;5037275;28;19971;-83
2022/10/26 11:52:59;;;;;;;;;;;;;;;-148.88;81.40;75017.63;5053557;28;19952;-82
2022/10/26 11:55:25;;;;;;;;;;;;;;;-148.88;80.59;75003.41;5053065;28;20402;-84
2022/10/26 11:57:52;;;;;;;;;;;;;;;-148.88;79.54;74989.19;5052896;28;19913;-83
2022/10/26 12:00:19;;;;;;;;;;;;;;;-148.88;79.31;75001.38;5053214;28;19920;-84
2022/10/26 12:03:08;;;;;;;;;;;;;;;-148.88;80.97;74995.28;5052583;28;20003;-84
2022/10/26 12:05:39;;;;;;;;;;;;;;;-148.88;81.43;74997.31;5053315;28;19908;-84
2022/10/26 12:08:07;;;;;;;;;;;;;;;-148.88;80.47;74987.16;5037112;28;19913;-84
2022/10/26 12:10:34;;;;;;;;;;;;;;;-148.88;80.15;75009.50;5053405;28;19920;-83
2022/10/26 12:13:11;;;;;;;;;;;;;;;-148.88;81.71;74999.34;5054749;28;19912;-83
2022/10/26 12:15:47;;;;;;;;;;;;;;;-148.88;81.65;74993.25;5037375;28;19913;-83
2022/10/26 12:18:23;;;;;;;;;;;;;;;-148.88;79.07;75013.56;5053140;28;20271;-84
2022/10/26 12:21:01;;;;;;;;;;;;;;;-148.88;77.92;75001.38;5052994;28;20294;-83
2022/10/26 12:23:27;;;;;;;;;;;;;;;-148.88;76.07;74985.13;5052696;28;19909;-84
2022/10/26 12:26:12;;;;;;;;;;;;;;;-148.88;73.79;75005.44;5053326;28;19909;-82
2022/10/26 12:28:40;;;;;;;;;;;;;;;-148.88;75.28;75017.63;5037327;28;19909;-84
2022/10/26 12:31:37;;;;;;;;;;;;;;;-148.88;76.89;75005.44;5052872;28;19963;-87